Terminal Aerodrome Forecast
Issued by NWS

Current Version | Previous Version | Graphics & Text | Print | Product List | Glossary On
Versions: 1 2 3 4 5 6 7 8 9 10 11 12 13 14 15 16 17
000
FTUS41 KPBZ 261135
TAFHLG
TAF
KHLG 261135Z 2612/2712 36006KT P6SM SKC
     FM261700 35010G18KT P6SM SCT050
     FM270000 34005KT P6SM SKC=

USA.gov is the U.S. government's official web portal to all federal, state and local government web resources and services.